Horizon Anchorage — KGTX — position and weather

sailwx.info

Track history (hours):
 
Tides and Currents Weather Stations Pressure Air Temp Water Temp Dewpoint Dewpoint Depression Visibility Wind Speed Wind Dir Waves Ship Positions

Horizon Anchorage

Owner: MATSON NAVIGATION COMPANY OF ALASKA, INC., Oakland, CA. More information available from US FCC via Universal Licensing System and Coast Guard Vessel Documentation Center.

Last reported at 2017-Feb-19 12:00 UTC. Time now 2017-Feb-19 18:39 UTC.
Position N 52°30' W 133°00'.

Type: Cargo ship. MMSI: 366557000.

Wind from 050 at 10 knots

Barometer 995.8 mb
Air temperature 3.9 ° C
Visibility: greater than 10.8 NM
Dewpoint -3.4 ° C
Water temperature 7.8 ° C

Date/timePositionNaut miles runAvg speedWind from/ knotsBaromVisibWave heightAir tempDewpointWater temp
2017-Feb-19 12:00N 52°30' W 133°00'33219.0 050 / 10995.810.8 3.9-3.4 7.8
2017-Feb-18 18:33N 48°54' W 126°22'1221.5
2017-Feb-18 18:00N 48°48' W 126°06'716.4 140 / 5996.810.8 8.9 5.5 8.3
2017-Feb-18 17:33N 48°45' W 125°56'1919.1
2017-Feb-18 16:33N 48°37' W 125°30'1918.7
2017-Feb-18 15:33N 48°31' W 125°03'1919.0
2017-Feb-18 14:34N 48°28' W 124°35'1918.6
2017-Feb-18 13:34N 48°21' W 124°09'1918.6
2017-Feb-18 12:33N 48°16' W 123°42'1515.3
2017-Feb-18 11:33N 48°09' W 123°22'1717.1
2017-Feb-18 10:33N 48°12' W 122°57'1818.1
2017-Feb-18 09:33N 48°00' W 122°36'1818.4
2017-Feb-18 08:34N 47°43' W 122°26'1918.8
2017-Feb-18 07:33N 47°25' W 122°22'9 8.7
2017-Feb-18 06:33N 47°16' W 122°25'0 0.0
2017-Feb-18 02:10N 47°16' W 122°25'0 0.0
2017-Feb-18 01:25N 47°16' W 122°25'0 0.0
2017-Feb-18 00:13N 47°16' W 122°25'0 0.0
2017-Feb-17 23:07N 47°16' W 122°25'0 0.0
2017-Feb-17 22:31N 47°16' W 122°25'0 0.0
2017-Feb-17 21:25N 47°16' W 122°25'0 0.0
2017-Feb-17 19:31N 47°16' W 122°25'0 0.0
2017-Feb-17 17:04N 47°16' W 122°25'0 0.0
2017-Feb-17 14:31N 47°16' W 122°25'0 0.0
2017-Feb-17 13:28N 47°16' W 122°25'0 0.0
2017-Feb-17 12:28N 47°16' W 122°25'0 0.0
2017-Feb-17 11:31N 47°16' W 122°25'0 0.0
2017-Feb-17 10:31N 47°16' W 122°25'0 0.0
2017-Feb-17 09:19N 47°16' W 122°25'0 0.0
2017-Feb-17 07:25N 47°16' W 122°25'0 0.0
2017-Feb-17 06:33N 47°16' W 122°25'0 0.0
2017-Feb-17 05:33N 47°16' W 122°25'5 5.0
2017-Feb-17 04:33N 47°21' W 122°25'1717.0
2017-Feb-17 03:34N 47°38' W 122°28'1818.5
2017-Feb-17 02:33N 47°56' W 122°32'2019.6
2017-Feb-17 01:34N 48°11' W 122°51'1919.0
2017-Feb-17 00:33N 48°10' W 123°20'1616.3
2017-Feb-16 23:33N 48°13' W 123°44'1918.7
2017-Feb-16 22:33N 48°18' W 124°11'2019.7
2017-Feb-16 21:33N 48°27' W 124°37'1717.2
2017-Feb-16 20:33N 48°29' W 125°03'1717.4
2017-Feb-16 19:33N 48°35' W 125°28'1818.1
2017-Feb-16 18:33N 48°42' W 125°53'1817.8
2017-Feb-16 17:33N 48°50' W 126°18'1616.4
2017-Feb-16 16:33N 48°58' W 126°39'38917.2
2017-Feb-15 18:00N 52°12' W 135°30'12120.2 330 / 13994.910.8 7.2 4.9 7.2
2017-Feb-15 12:00N 53°12' W 138°24'41817.4 280 / 25987.010.8 4.4 0.6 6.1
2017-Feb-14 12:00N 56°42' W 148°54'   220 / 27961.0 5.4 3.9 2.5 5.0
2017-Feb-12 00:00N 58°30' W 149°12'21818.2 010 / 21982.010.8 -2.2 6.1
2017-Feb-11 12:00N 57°00' W 143°00'20016.7 200 / 28988.0 5.4 2.8 1.4 5.0
2017-Feb-11 00:00N 55°06' W 138°06'21718.1 260 / 34994.0 5.4 3.9-0.1 6.7
2017-Feb-10 12:00N 52°42' W 133°30'11419.0 240 / 32993.010.8 3.9 1.3 7.8
2017-Feb-10 06:00N 51°30' W 131°06'21020.1 330 / 9993.810.8 2.8-2.9 7.8
2017-Feb-09 19:33N 49°19' W 126°50'2019.8
2017-Feb-09 18:34N 49°07' W 126°25'2020.1
2017-Feb-09 17:34N 48°55' W 126°01'2019.6
2017-Feb-09 16:34N 48°43' W 125°37'2020.0
2017-Feb-09 15:33N 48°32' W 125°11'2020.3
2017-Feb-09 14:33N 48°29' W 124°41'2020.3
2017-Feb-09 13:33N 48°22' W 124°12'2019.6
2017-Feb-09 12:33N 48°16' W 123°44'  
Track history (hours):
 
Tides and Currents Weather Stations Pressure Air Temp Water Temp Dewpoint Dewpoint Depression Visibility Wind Speed Wind Dir Waves Ship Positions

Horizon Anchorage

Owner: MATSON NAVIGATION COMPANY OF ALASKA, INC., Oakland, CA. More information available from US FCC via Universal Licensing System and Coast Guard Vessel Documentation Center.

Last reported at 2017-Feb-19 12:00 UTC. Time now 2017-Feb-19 18:39 UTC.
Position N 52°30' W 133°00'.

Type: Cargo ship. MMSI: 366557000.

Wind from 050 at 10 knots

Barometer 995.8 mb
Air temperature 3.9 ° C
Visibility: greater than 10.8 NM
Dewpoint -3.4 ° C
Water temperature 7.8 ° C

Date/timePositionNaut miles runAvg speedWind from/ knotsBaromVisibWave heightAir tempDewpointWater temp
2017-Feb-19 12:00N 52°30' W 133°00'33219.0 050 / 10995.810.8 3.9-3.4 7.8
2017-Feb-18 18:33N 48°54' W 126°22'1221.5
2017-Feb-18 18:00N 48°48' W 126°06'716.4 140 / 5996.810.8 8.9 5.5 8.3
2017-Feb-18 17:33N 48°45' W 125°56'1919.1
2017-Feb-18 16:33N 48°37' W 125°30'1918.7
2017-Feb-18 15:33N 48°31' W 125°03'1919.0
2017-Feb-18 14:34N 48°28' W 124°35'1918.6
2017-Feb-18 13:34N 48°21' W 124°09'1918.6
2017-Feb-18 12:33N 48°16' W 123°42'1515.3
2017-Feb-18 11:33N 48°09' W 123°22'1717.1
2017-Feb-18 10:33N 48°12' W 122°57'1818.1
2017-Feb-18 09:33N 48°00' W 122°36'1818.4
2017-Feb-18 08:34N 47°43' W 122°26'1918.8
2017-Feb-18 07:33N 47°25' W 122°22'9 8.7
2017-Feb-18 06:33N 47°16' W 122°25'0 0.0
2017-Feb-18 02:10N 47°16' W 122°25'0 0.0
2017-Feb-18 01:25N 47°16' W 122°25'0 0.0
2017-Feb-18 00:13N 47°16' W 122°25'0 0.0
2017-Feb-17 23:07N 47°16' W 122°25'0 0.0
2017-Feb-17 22:31N 47°16' W 122°25'0 0.0
2017-Feb-17 21:25N 47°16' W 122°25'0 0.0
2017-Feb-17 19:31N 47°16' W 122°25'0 0.0
2017-Feb-17 17:04N 47°16' W 122°25'0 0.0
2017-Feb-17 14:31N 47°16' W 122°25'0 0.0
2017-Feb-17 13:28N 47°16' W 122°25'0 0.0
2017-Feb-17 12:28N 47°16' W 122°25'0 0.0
2017-Feb-17 11:31N 47°16' W 122°25'0 0.0
2017-Feb-17 10:31N 47°16' W 122°25'0 0.0
2017-Feb-17 09:19N 47°16' W 122°25'0 0.0
2017-Feb-17 07:25N 47°16' W 122°25'0 0.0
2017-Feb-17 06:33N 47°16' W 122°25'0 0.0
2017-Feb-17 05:33N 47°16' W 122°25'5 5.0
2017-Feb-17 04:33N 47°21' W 122°25'1717.0
2017-Feb-17 03:34N 47°38' W 122°28'1818.5
2017-Feb-17 02:33N 47°56' W 122°32'2019.6
2017-Feb-17 01:34N 48°11' W 122°51'1919.0
2017-Feb-17 00:33N 48°10' W 123°20'1616.3
2017-Feb-16 23:33N 48°13' W 123°44'1918.7
2017-Feb-16 22:33N 48°18' W 124°11'2019.7
2017-Feb-16 21:33N 48°27' W 124°37'1717.2
2017-Feb-16 20:33N 48°29' W 125°03'1717.4
2017-Feb-16 19:33N 48°35' W 125°28'1818.1
2017-Feb-16 18:33N 48°42' W 125°53'1817.8
2017-Feb-16 17:33N 48°50' W 126°18'1616.4
2017-Feb-16 16:33N 48°58' W 126°39'38917.2
2017-Feb-15 18:00N 52°12' W 135°30'12120.2 330 / 13994.910.8 7.2 4.9 7.2
2017-Feb-15 12:00N 53°12' W 138°24'41817.4 280 / 25987.010.8 4.4 0.6 6.1
2017-Feb-14 12:00N 56°42' W 148°54'   220 / 27961.0 5.4 3.9 2.5 5.0
2017-Feb-12 00:00N 58°30' W 149°12'21818.2 010 / 21982.010.8 -2.2 6.1
2017-Feb-11 12:00N 57°00' W 143°00'20016.7 200 / 28988.0 5.4 2.8 1.4 5.0
2017-Feb-11 00:00N 55°06' W 138°06'21718.1 260 / 34994.0 5.4 3.9-0.1 6.7
2017-Feb-10 12:00N 52°42' W 133°30'11419.0 240 / 32993.010.8 3.9 1.3 7.8
2017-Feb-10 06:00N 51°30' W 131°06'21020.1 330 / 9993.810.8 2.8-2.9 7.8
2017-Feb-09 19:33N 49°19' W 126°50'2019.8
2017-Feb-09 18:34N 49°07' W 126°25'2020.1
2017-Feb-09 17:34N 48°55' W 126°01'2019.6
2017-Feb-09 16:34N 48°43' W 125°37'2020.0
2017-Feb-09 15:33N 48°32' W 125°11'2020.3
2017-Feb-09 14:33N 48°29' W 124°41'2020.3
2017-Feb-09 13:33N 48°22' W 124°12'2019.6
2017-Feb-09 12:33N 48°16' W 123°44'  

Dump ship's entire track history